createdAt,value
2023-02-22T00:00:50.132Z,90.53
2023-02-22T00:02:10.497Z,90.72
2023-02-22T00:03:16.490Z,91.48
2023-02-22T00:04:21.159Z,91.47
2023-02-22T00:05:24.862Z,91.98
2023-02-22T00:06:26.490Z,92.20
2023-02-22T00:07:28.100Z,91.87
2023-02-22T00:08:32.010Z,91.85
2023-02-22T00:09:33.666Z,91.00
2023-02-22T00:10:38.345Z,92.10
2023-02-22T00:11:46.587Z,91.38
2023-02-22T00:12:51.198Z,91.29
2023-02-22T00:13:57.044Z,91.58
2023-02-22T00:14:58.680Z,92.57
2023-02-22T00:16:01.129Z,93.50
2023-02-22T00:17:02.710Z,92.47
2023-02-22T00:18:04.741Z,92.27
2023-02-22T00:19:06.337Z,93.00
2023-02-22T00:20:10.149Z,92.75
2023-02-22T00:21:13.123Z,92.57
2023-02-22T00:22:19.049Z,92.84
2023-02-22T00:23:22.140Z,92.58
2023-02-22T00:24:24.644Z,93.05
2023-02-22T00:25:26.314Z,93.80
2023-02-22T00:26:27.964Z,92.71
2023-02-22T00:27:29.559Z,92.47
2023-02-22T00:28:31.213Z,93.98
2023-02-22T00:29:34.406Z,92.89
2023-02-22T00:30:36.018Z,92.07
2023-02-22T00:31:39.234Z,91.73
2023-02-22T00:32:40.927Z,91.05
2023-02-22T00:33:42.873Z,91.48
2023-02-22T00:34:44.579Z,92.24
2023-02-22T00:35:46.339Z,92.07
2023-02-22T00:36:49.572Z,91.48
2023-02-22T00:37:53.204Z,91.87
2023-02-22T00:38:55.662Z,92.03
2023-02-22T00:39:57.201Z,91.02
2023-02-22T00:40:58.869Z,92.09
2023-02-22T00:42:00.632Z,91.73
2023-02-22T00:43:05.697Z,91.50
2023-02-22T00:44:07.269Z,92.24
2023-02-22T00:45:09.156Z,91.48
2023-02-22T00:46:10.874Z,91.89
2023-02-22T00:47:12.725Z,91.55
2023-02-22T00:48:14.687Z,92.18
2023-02-22T00:49:16.901Z,92.80
2023-02-22T00:50:19.126Z,92.52
2023-02-22T00:51:20.935Z,92.23
2023-02-22T00:52:26.322Z,92.50
2023-02-22T00:53:28.015Z,92.83
2023-02-22T00:54:29.641Z,93.21
2023-02-22T00:55:35.075Z,93.06
2023-02-22T00:56:37.524Z,93.06
2023-02-22T00:57:40.171Z,92.90
2023-02-22T00:58:41.622Z,95.34
2023-02-22T00:59:43.199Z,93.39
2023-02-22T01:00:45.819Z,92.97
2023-02-22T01:01:48.921Z,93.08
2023-02-22T01:02:53.306Z,94.17
2023-02-22T01:03:55.026Z,93.48
2023-02-22T01:04:56.770Z,93.30
2023-02-22T01:05:58.581Z,92.19
2023-02-22T01:07:00.578Z,93.21
2023-02-22T01:08:03.142Z,93.81
2023-02-22T01:09:04.747Z,93.50
2023-02-22T01:10:08.615Z,93.86
2023-02-22T01:11:10.322Z,92.62
2023-02-22T01:12:13.404Z,92.89
2023-02-22T01:13:15.437Z,94.76
2023-02-22T01:14:18.216Z,91.57
2023-02-22T01:15:24.494Z,90.86
2023-02-22T01:16:26.435Z,90.51
2023-02-22T01:17:28.030Z,90.57
2023-02-22T01:18:29.628Z,91.50
2023-02-22T01:19:32.307Z,91.89
2023-02-22T01:20:33.958Z,92.11
2023-02-22T01:21:35.588Z,92.54
2023-02-22T01:22:37.471Z,93.01
2023-02-22T01:23:39.077Z,92.76
2023-02-22T01:24:40.777Z,92.64
2023-02-22T01:25:43.483Z,91.86
2023-02-22T01:26:52.491Z,92.35
2023-02-22T01:27:54.787Z,92.84
2023-02-22T01:28:56.388Z,93.16
2023-02-22T01:29:59.969Z,93.12
2023-02-22T01:31:02.848Z,93.96
2023-02-22T01:32:06.569Z,93.55
2023-02-22T01:33:09.176Z,94.29
2023-02-22T01:34:12.868Z,93.95
2023-02-22T01:35:18.468Z,93.97
2023-02-22T01:36:20.115Z,93.90
2023-02-22T01:37:21.712Z,92.78
2023-02-22T01:38:23.246Z,93.10
2023-02-22T01:39:24.905Z,93.26
2023-02-22T01:40:34.195Z,93.85
2023-02-22T01:41:36.897Z,93.81
2023-02-22T01:42:39.805Z,93.14
2023-02-22T01:43:41.408Z,93.59
2023-02-22T01:44:43.032Z,93.42
2023-02-22T01:45:54.940Z,93.24
2023-02-22T01:46:58.256Z,93.43
2023-02-22T01:48:14.971Z,92.89
2023-02-22T01:49:16.761Z,92.22
2023-02-22T01:50:18.320Z,91.87
2023-02-22T01:51:24.873Z,93.19
2023-02-22T01:52:26.492Z,93.80
2023-02-22T01:53:38.282Z,93.43
2023-02-22T01:54:43.955Z,93.79
2023-02-22T01:55:46.753Z,94.23
2023-02-22T01:57:00.155Z,94.81
2023-02-22T01:58:02.773Z,95.01
2023-02-22T01:59:06.902Z,94.30
2023-02-22T02:00:13.015Z,94.57
2023-02-22T02:01:19.299Z,93.87
2023-02-22T02:02:21.697Z,93.63
2023-02-22T02:03:27.680Z,93.87
2023-02-22T02:04:29.323Z,93.39
2023-02-22T02:05:31.978Z,95.08
2023-02-22T02:06:34.812Z,93.38
2023-02-22T02:07:37.457Z,94.81
2023-02-22T02:08:57.275Z,93.71
2023-02-22T02:10:01.399Z,92.78
2023-02-22T02:11:09.247Z,93.11
2023-02-22T02:12:12.776Z,92.94
2023-02-22T02:13:16.120Z,93.99
2023-02-22T02:14:18.040Z,92.15
2023-02-22T02:15:22.584Z,92.35
2023-02-22T02:16:41.074Z,92.29
2023-02-22T02:17:45.235Z,93.03
2023-02-22T02:18:46.876Z,92.72
2023-02-22T02:19:55.840Z,93.67
2023-02-22T02:21:18.939Z,93.53
2023-02-22T02:23:08.380Z,93.97
2023-02-22T02:24:34.638Z,93.39
2023-02-22T02:25:39.179Z,94.67
2023-02-22T02:27:11.801Z,94.73
2023-02-22T02:28:35.187Z,94.45
2023-02-22T02:29:48.827Z,94.38
2023-02-22T02:31:16.834Z,94.32
2023-02-22T02:32:46.633Z,94.15
2023-02-22T02:33:48.250Z,93.42
2023-02-22T02:34:55.561Z,93.09
2023-02-22T02:36:04.126Z,92.12
2023-02-22T02:37:18.082Z,93.04
2023-02-22T02:38:31.683Z,92.90
2023-02-22T02:39:53.732Z,93.55
2023-02-22T02:40:58.315Z,93.41
2023-02-22T02:42:00.919Z,93.21
2023-02-22T02:43:02.309Z,93.09
2023-02-22T02:44:14.599Z,93.29
2023-02-22T02:45:20.512Z,93.05
2023-02-22T02:46:35.469Z,93.43
2023-02-22T02:47:40.754Z,93.55
2023-02-22T02:48:51.513Z,93.90
2023-02-22T02:50:13.351Z,93.97
2023-02-22T02:51:16.201Z,94.11
2023-02-22T02:52:19.344Z,93.93
2023-02-22T02:53:27.101Z,94.37
2023-02-22T02:54:29.317Z,93.88
2023-02-22T02:55:31.891Z,94.70
2023-02-22T02:56:33.702Z,93.58
2023-02-22T02:57:35.418Z,93.64
2023-02-22T02:58:52.794Z,94.38
2023-02-22T02:59:54.419Z,94.32
2023-02-22T03:00:59.872Z,93.65
2023-02-22T03:02:27.400Z,94.25
2023-02-22T03:03:53.677Z,96.25
2023-02-22T03:05:13.776Z,96.48
2023-02-22T03:06:24.335Z,92.97
2023-02-22T03:07:31.762Z,92.31
2023-02-22T03:08:51.523Z,92.75
2023-02-22T03:09:54.772Z,93.26
2023-02-22T03:11:17.870Z,93.51
2023-02-22T03:12:48.719Z,93.67
2023-02-22T03:14:07.276Z,93.13
2023-02-22T03:15:33.481Z,93.35
2023-02-22T03:16:54.706Z,93.33
2023-02-22T03:18:22.842Z,93.23
2023-02-22T03:19:35.856Z,93.85
2023-02-22T03:20:48.431Z,92.30
2023-02-22T03:21:57.216Z,93.05
2023-02-22T03:23:04.183Z,92.86
2023-02-22T03:24:09.983Z,93.98
2023-02-22T03:25:16.955Z,92.27
2023-02-22T03:26:24.441Z,93.19
2023-02-22T03:27:49.623Z,92.99
2023-02-22T03:28:53.282Z,93.40
2023-02-22T03:30:00.388Z,93.08
2023-02-22T03:31:13.112Z,92.72
2023-02-22T03:32:22.855Z,94.79
2023-02-22T03:33:33.820Z,93.38
2023-02-22T03:34:45.954Z,93.66
2023-02-22T03:35:56.975Z,93.89
2023-02-22T03:37:06.544Z,94.00
2023-02-22T03:38:10.259Z,94.92
2023-02-22T03:39:16.032Z,93.92
2023-02-22T03:40:26.370Z,94.51
2023-02-22T03:41:31.405Z,94.28
2023-02-22T03:42:37.594Z,93.79
2023-02-22T03:43:44.550Z,93.05
2023-02-22T03:44:50.020Z,93.78
2023-02-22T03:45:52.076Z,94.53
2023-02-22T03:46:56.837Z,94.34
2023-02-22T03:48:04.646Z,94.21
2023-02-22T03:49:09.038Z,93.60
2023-02-22T03:50:20.876Z,93.09
2023-02-22T03:51:22.917Z,93.08
2023-02-22T03:52:28.856Z,92.50
2023-02-22T03:53:33.169Z,92.65
2023-02-22T03:54:35.135Z,93.13
2023-02-22T03:55:37.345Z,93.31
2023-02-22T03:56:47.545Z,92.63
2023-02-22T03:57:52.918Z,94.81
2023-02-22T03:58:55.356Z,93.57
2023-02-22T03:59:57.038Z,94.44
2023-02-22T04:00:58.663Z,93.03
2023-02-22T04:02:00.244Z,93.97
2023-02-22T04:03:04.438Z,93.56
2023-02-22T04:04:06.264Z,93.62
2023-02-22T04:05:08.375Z,95.59
2023-02-22T04:06:10.232Z,94.61
2023-02-22T04:07:11.935Z,93.50
2023-02-22T04:08:14.192Z,93.37
2023-02-22T04:09:16.741Z,93.81
2023-02-22T04:10:19.478Z,94.71
2023-02-22T04:11:21.256Z,94.96
2023-02-22T04:12:22.943Z,94.58
2023-02-22T04:13:34.964Z,93.85
2023-02-22T04:14:37.426Z,93.66
2023-02-22T04:15:39.155Z,93.39
2023-02-22T04:16:43.622Z,93.86
2023-02-22T04:17:45.289Z,93.65
2023-02-22T04:18:49.157Z,93.80
2023-02-22T04:19:53.167Z,93.36
2023-02-22T04:20:56.852Z,94.27
2023-02-22T04:22:12.143Z,94.71
2023-02-22T04:23:13.789Z,93.93
2023-02-22T04:24:16.671Z,94.16
2023-02-22T04:25:18.842Z,93.94
2023-02-22T04:26:21.880Z,94.01
2023-02-22T04:27:28.150Z,94.73
2023-02-22T04:28:31.206Z,95.06
2023-02-22T04:29:48.672Z,95.16
2023-02-22T04:30:50.588Z,94.80
2023-02-22T04:31:53.734Z,95.03
2023-02-22T04:32:56.062Z,96.68
2023-02-22T04:33:57.940Z,95.09
2023-02-22T04:35:05.355Z,95.09
2023-02-22T04:36:08.000Z,94.80
2023-02-22T04:37:10.485Z,95.27
2023-02-22T04:38:12.076Z,95.64
2023-02-22T04:39:15.454Z,96.09
2023-02-22T04:40:19.170Z,95.28
2023-02-22T04:41:25.257Z,94.23
2023-02-22T04:42:27.723Z,95.04
2023-02-22T04:43:30.165Z,94.45
2023-02-22T04:44:39.623Z,95.14
2023-02-22T04:45:41.310Z,95.03
2023-02-22T04:46:43.731Z,96.34
2023-02-22T04:47:47.999Z,96.00
2023-02-22T04:48:49.845Z,95.51
2023-02-22T04:49:55.868Z,95.86
2023-02-22T04:50:57.476Z,94.75
2023-02-22T04:51:59.506Z,96.09
2023-02-22T04:53:08.560Z,94.50
2023-02-22T04:54:13.634Z,94.46
2023-02-22T04:55:20.613Z,94.75
2023-02-22T04:56:22.340Z,93.77
2023-02-22T04:57:24.106Z,94.36
2023-02-22T04:58:25.805Z,93.72
2023-02-22T04:59:27.452Z,95.42
2023-02-22T05:00:33.613Z,94.79
2023-02-22T05:01:37.962Z,95.19
2023-02-22T05:02:40.130Z,94.81
2023-02-22T05:03:42.274Z,94.57
2023-02-22T05:04:44.768Z,94.60
2023-02-22T05:05:46.660Z,94.52
2023-02-22T05:06:48.579Z,94.92
2023-02-22T05:07:50.446Z,95.35
2023-02-22T05:08:53.245Z,95.13
2023-02-22T05:09:54.819Z,95.53
2023-02-22T05:10:56.413Z,95.18
2023-02-22T05:11:58.013Z,94.82
2023-02-22T05:12:59.676Z,94.38
2023-02-22T05:14:01.353Z,94.62
2023-02-22T05:15:05.251Z,95.11
2023-02-22T05:16:07.086Z,95.49
2023-02-22T05:17:08.857Z,95.37
2023-02-22T05:18:10.433Z,94.86
2023-02-22T05:19:12.035Z,94.87
2023-02-22T05:20:34.888Z,95.37
2023-02-22T05:21:36.486Z,95.24
2023-02-22T05:22:38.062Z,95.00
2023-02-22T05:23:39.904Z,95.91
2023-02-22T05:24:41.502Z,95.88
2023-02-22T05:25:43.072Z,94.52
2023-02-22T05:26:45.275Z,94.69
2023-02-22T05:28:03.170Z,94.68
2023-02-22T05:29:05.077Z,94.90
2023-02-22T05:30:09.192Z,95.40
2023-02-22T05:31:10.864Z,95.18
2023-02-22T05:32:12.664Z,95.66
2023-02-22T05:33:14.253Z,96.22
2023-02-22T05:34:16.237Z,94.46
2023-02-22T05:35:21.919Z,95.47
2023-02-22T05:36:23.858Z,95.48
2023-02-22T05:37:25.421Z,95.60
2023-02-22T05:38:27.077Z,95.43
2023-02-22T05:39:29.089Z,95.12
2023-02-22T05:40:31.481Z,96.49
2023-02-22T05:41:33.091Z,97.54
2023-02-22T05:42:34.716Z,95.22
2023-02-22T05:43:36.826Z,94.21
2023-02-22T05:44:38.461Z,94.81
2023-02-22T05:45:40.073Z,94.32
2023-02-22T05:46:41.729Z,94.57
2023-02-22T05:47:43.353Z,94.52
2023-02-22T05:48:44.935Z,94.66
2023-02-22T05:49:46.538Z,95.21
2023-02-22T05:50:49.886Z,95.73
2023-02-22T05:51:51.790Z,95.02
2023-02-22T05:52:53.646Z,95.11
2023-02-22T05:53:55.226Z,96.13
2023-02-22T05:54:56.975Z,94.78
2023-02-22T05:55:58.627Z,95.54
2023-02-22T05:57:01.013Z,95.87
2023-02-22T05:58:05.745Z,94.55
2023-02-22T05:59:07.391Z,94.69
2023-02-22T06:00:10.533Z,95.27
2023-02-22T06:01:14.930Z,95.71
2023-02-22T06:02:16.621Z,95.27
2023-02-22T06:03:18.276Z,94.96
2023-02-22T06:04:20.168Z,95.54
2023-02-22T06:05:22.046Z,94.72
2023-02-22T06:06:23.647Z,94.71
2023-02-22T06:07:25.365Z,95.80
2023-02-22T06:08:26.993Z,95.14
2023-02-22T06:09:28.747Z,95.60
2023-02-22T06:10:30.746Z,95.35
2023-02-22T06:11:32.383Z,94.73
2023-02-22T06:12:34.010Z,94.66
2023-02-22T06:13:36.369Z,93.79
2023-02-22T06:14:38.014Z,94.79
2023-02-22T06:15:39.618Z,95.05
2023-02-22T06:16:41.211Z,95.52
2023-02-22T06:17:43.132Z,95.41
2023-02-22T06:18:44.958Z,95.40
2023-02-22T06:19:46.508Z,95.07
2023-02-22T06:20:48.255Z,95.35
2023-02-22T06:21:51.540Z,94.81
2023-02-22T06:22:56.128Z,95.00
2023-02-22T06:23:57.793Z,94.64
2023-02-22T06:24:59.372Z,94.45
2023-02-22T06:26:01.029Z,94.49
2023-02-22T06:27:02.667Z,95.13
2023-02-22T06:28:04.608Z,94.82
2023-02-22T06:29:06.210Z,95.06
2023-02-22T06:30:10.795Z,93.83
2023-02-22T06:31:13.499Z,93.66
2023-02-22T06:32:15.224Z,94.10
2023-02-22T06:33:16.898Z,95.21
2023-02-22T06:34:18.768Z,94.25
2023-02-22T06:35:20.870Z,94.17
2023-02-22T06:36:22.469Z,95.13
2023-02-22T06:37:24.063Z,94.22
2023-02-22T06:38:27.831Z,93.60
2023-02-22T06:39:29.502Z,94.22
2023-02-22T06:40:31.168Z,94.77
2023-02-22T06:41:32.745Z,94.15
2023-02-22T06:42:34.462Z,94.07
2023-02-22T06:43:36.066Z,94.11
2023-02-22T06:44:37.660Z,93.46
2023-02-22T06:45:39.293Z,94.21
2023-02-22T06:46:47.375Z,93.23
2023-02-22T06:47:49.755Z,93.07
2023-02-22T06:48:52.124Z,92.45
2023-02-22T06:49:57.519Z,93.94
2023-02-22T06:50:59.090Z,94.07
2023-02-22T06:52:00.761Z,94.52
2023-02-22T06:53:02.384Z,92.68
2023-02-22T06:54:04.497Z,92.90
2023-02-22T06:55:06.193Z,95.93
2023-02-22T06:56:07.774Z,91.97
2023-02-22T06:57:10.240Z,92.45
2023-02-22T06:58:11.819Z,91.86
2023-02-22T06:59:13.447Z,93.10
2023-02-22T07:00:17.571Z,93.24
2023-02-22T07:01:19.463Z,91.40
2023-02-22T07:02:21.311Z,91.40
2023-02-22T07:03:23.052Z,91.14
2023-02-22T07:04:24.702Z,91.61
2023-02-22T07:05:27.382Z,90.87
2023-02-22T07:06:28.962Z,91.97
2023-02-22T07:07:30.635Z,90.88
2023-02-22T07:08:32.195Z,89.42
2023-02-22T07:09:33.819Z,88.72
2023-02-22T07:10:36.446Z,88.99
2023-02-22T07:11:38.628Z,88.73
2023-02-22T07:12:40.198Z,88.08
2023-02-22T07:13:41.794Z,88.99
2023-02-22T07:14:43.384Z,87.71
2023-02-22T07:15:45.043Z,87.16
2023-02-22T07:16:46.755Z,87.04
2023-02-22T07:17:48.524Z,86.72
2023-02-22T07:18:50.121Z,85.91
2023-02-22T07:19:51.723Z,85.86
2023-02-22T07:20:54.268Z,85.20
2023-02-22T07:21:59.248Z,84.63
2023-02-22T07:23:01.418Z,84.11
2023-02-22T07:24:05.411Z,82.41
2023-02-22T07:25:10.000Z,82.51
2023-02-22T07:26:12.179Z,80.87
2023-02-22T07:27:13.821Z,80.27
2023-02-22T07:28:15.658Z,80.23
2023-02-22T07:29:17.309Z,77.70
2023-02-22T07:30:25.350Z,74.19
2023-02-22T07:31:29.556Z,73.72
2023-02-22T07:32:31.427Z,73.83
2023-02-22T07:33:33.152Z,72.38
2023-02-22T07:34:34.737Z,72.34
2023-02-22T07:35:39.754Z,73.27
2023-02-22T07:36:41.412Z,71.86
2023-02-22T07:37:43.300Z,71.38
2023-02-22T07:38:45.827Z,69.75
2023-02-22T07:39:47.290Z,70.65
2023-02-22T07:40:48.849Z,69.49
2023-02-22T07:41:50.420Z,70.46
2023-02-22T07:43:01.332Z,70.27
2023-02-22T07:44:02.966Z,70.66
2023-02-22T07:45:04.829Z,69.57
2023-02-22T07:46:06.587Z,68.88
2023-02-22T07:47:08.964Z,68.27
2023-02-22T07:48:12.551Z,66.40
2023-02-22T07:49:14.956Z,66.71
2023-02-22T07:50:17.645Z,65.87
2023-02-22T07:51:20.771Z,62.45
2023-02-22T07:52:22.493Z,62.65
2023-02-22T07:53:30.124Z,60.94
2023-02-22T07:54:31.795Z,62.23
2023-02-22T07:55:34.028Z,63.11
2023-02-22T07:56:35.744Z,64.05
2023-02-22T07:57:37.356Z,64.97
2023-02-22T07:58:39.008Z,63.74
2023-02-22T07:59:40.585Z,65.13
2023-02-22T08:00:44.018Z,68.22
2023-02-22T08:01:45.602Z,65.90
2023-02-22T08:02:47.304Z,68.69
2023-02-22T08:03:49.033Z,66.06
2023-02-22T08:04:50.656Z,66.16
2023-02-22T08:05:56.837Z,67.75
2023-02-22T08:06:58.485Z,67.01
2023-02-22T08:08:00.160Z,66.69
2023-02-22T08:09:01.783Z,66.13
2023-02-22T08:10:06.679Z,65.71
2023-02-22T08:11:08.407Z,64.49
2023-02-22T08:12:10.000Z,63.90
2023-02-22T08:13:11.715Z,64.89
2023-02-22T08:14:16.378Z,62.83
2023-02-22T08:15:24.963Z,63.16
2023-02-22T08:16:26.480Z,64.22
2023-02-22T08:17:28.145Z,64.32
2023-02-22T08:18:29.738Z,63.84
2023-02-22T08:19:31.408Z,62.84
2023-02-22T08:20:32.993Z,61.47
2023-02-22T08:21:34.614Z,59.82
2023-02-22T08:22:36.222Z,58.28
2023-02-22T08:23:38.857Z,58.45
2023-02-22T08:24:40.671Z,57.22
2023-02-22T08:25:42.457Z,59.73
2023-02-22T08:26:47.313Z,58.33
2023-02-22T08:27:48.968Z,57.14
2023-02-22T08:28:50.685Z,57.63
2023-02-22T08:29:52.823Z,55.53
2023-02-22T08:30:54.449Z,54.29
2023-02-22T08:31:56.351Z,54.67
2023-02-22T08:32:58.929Z,52.43
2023-02-22T08:34:01.106Z,51.96
2023-02-22T08:35:03.096Z,50.47
2023-02-22T08:36:05.144Z,48.82
2023-02-22T08:37:06.949Z,47.71
2023-02-22T08:38:16.639Z,46.29
2023-02-22T08:39:18.282Z,46.38
2023-02-22T08:40:22.409Z,46.58
2023-02-22T08:41:24.089Z,44.93
2023-02-22T08:42:25.629Z,43.78
2023-02-22T08:43:28.486Z,42.13
2023-02-22T08:44:30.106Z,41.80
2023-02-22T08:45:31.830Z,40.79
2023-02-22T08:46:33.469Z,43.53
2023-02-22T08:47:35.053Z,43.47
2023-02-22T08:48:36.696Z,43.21
2023-02-22T08:49:38.311Z,42.68
2023-02-22T08:50:41.845Z,42.62
2023-02-22T08:51:43.510Z,42.75
2023-02-22T08:52:45.139Z,44.19
2023-02-22T08:53:46.801Z,45.50
2023-02-22T08:54:48.558Z,45.85
2023-02-22T08:55:50.160Z,46.31
2023-02-22T08:56:51.761Z,48.21
2023-02-22T08:57:53.361Z,50.80
2023-02-22T08:58:55.898Z,51.91
2023-02-22T08:59:57.509Z,52.07
2023-02-22T09:00:59.103Z,52.46
2023-02-22T09:02:02.770Z,53.29
2023-02-22T09:03:07.000Z,55.67
2023-02-22T09:04:08.712Z,53.66
2023-02-22T09:05:10.519Z,53.73
2023-02-22T09:06:12.131Z,53.32
2023-02-22T09:07:14.145Z,53.19
2023-02-22T09:08:16.669Z,53.30
2023-02-22T09:09:21.321Z,53.44
2023-02-22T09:10:28.564Z,50.31
2023-02-22T09:11:30.198Z,48.08
2023-02-22T09:12:31.859Z,47.17
2023-02-22T09:13:33.494Z,44.43
2023-02-22T09:14:35.237Z,43.00
2023-02-22T09:15:37.250Z,41.91
2023-02-22T09:16:38.882Z,41.33
2023-02-22T09:17:40.504Z,42.09
2023-02-22T09:18:44.329Z,41.96
2023-02-22T09:19:46.210Z,41.77
2023-02-22T09:20:47.790Z,41.09
2023-02-22T09:22:00.097Z,39.98
2023-02-22T09:23:02.972Z,40.32
2023-02-22T09:24:08.465Z,43.28
2023-02-22T09:25:16.660Z,42.29
2023-02-22T09:26:18.807Z,41.93
2023-02-22T09:27:20.471Z,41.28
2023-02-22T09:28:22.283Z,41.14
2023-02-22T09:29:26.137Z,42.04
2023-02-22T09:30:31.948Z,41.40
2023-02-22T09:31:36.605Z,40.97
2023-02-22T09:32:38.482Z,39.96
2023-02-22T09:33:41.485Z,39.09
2023-02-22T09:34:45.876Z,37.48
2023-02-22T09:35:49.829Z,35.55
2023-02-22T09:36:51.425Z,37.08
2023-02-22T09:37:54.875Z,36.96
2023-02-22T09:38:58.845Z,37.59
2023-02-22T09:40:00.514Z,37.54
2023-02-22T09:41:12.405Z,38.58
2023-02-22T09:42:17.188Z,38.44
2023-02-22T09:43:18.901Z,40.14
2023-02-22T09:44:28.448Z,40.37
2023-02-22T09:45:48.324Z,42.15
2023-02-22T09:46:51.132Z,44.26
2023-02-22T09:47:57.668Z,44.39
2023-02-22T09:49:06.233Z,46.76
2023-02-22T09:50:16.632Z,47.12
2023-02-22T09:51:23.334Z,47.40
2023-02-22T09:52:37.403Z,45.44
2023-02-22T09:53:42.560Z,43.90
2023-02-22T09:54:51.961Z,41.66
2023-02-22T09:55:57.301Z,40.15
2023-02-22T09:57:02.991Z,38.90
2023-02-22T09:58:17.688Z,38.68
2023-02-22T09:59:26.980Z,39.98
2023-02-22T10:00:33.901Z,38.82
2023-02-22T10:01:41.033Z,37.20
2023-02-22T10:02:45.389Z,36.62
2023-02-22T10:03:56.479Z,35.70
2023-02-22T10:05:34.647Z,35.21
2023-02-22T10:06:37.269Z,33.63
2023-02-22T10:07:48.630Z,36.39
2023-02-22T10:08:56.376Z,36.30
2023-02-22T10:09:58.827Z,36.34
2023-02-22T10:11:19.359Z,36.88
2023-02-22T10:12:31.118Z,35.19
2023-02-22T10:13:42.172Z,36.43
2023-02-22T10:15:08.439Z,35.26
2023-02-22T10:16:19.440Z,36.75
2023-02-22T10:17:40.522Z,37.20
2023-02-22T10:19:08.299Z,36.32
2023-02-22T10:20:28.661Z,37.06
2023-02-22T10:21:45.303Z,35.56
2023-02-22T10:22:56.828Z,34.78
2023-02-22T10:24:24.704Z,35.73
2023-02-22T10:25:28.086Z,37.77
2023-02-22T10:26:32.731Z,36.45
2023-02-22T10:27:40.322Z,35.22
2023-02-22T10:28:47.934Z,35.15
2023-02-22T10:29:54.196Z,35.25
2023-02-22T10:31:05.141Z,32.57
2023-02-22T10:32:14.027Z,32.74
2023-02-22T10:33:19.122Z,32.28
2023-02-22T10:34:29.795Z,33.66
2023-02-22T10:35:35.297Z,32.99
2023-02-22T10:36:39.163Z,32.67
2023-02-22T10:37:40.761Z,34.68
2023-02-22T10:38:48.825Z,33.46
2023-02-22T10:39:52.976Z,31.38
2023-02-22T10:41:24.018Z,28.93
2023-02-22T10:42:27.231Z,30.34
2023-02-22T10:43:29.558Z,31.09
2023-02-22T10:44:32.519Z,30.29
2023-02-22T10:45:36.984Z,32.73
2023-02-22T10:46:40.044Z,32.06
2023-02-22T10:47:41.667Z,31.66
2023-02-22T10:48:45.848Z,30.94
2023-02-22T10:49:51.436Z,33.73
2023-02-22T10:50:54.860Z,33.04
2023-02-22T10:52:04.731Z,32.44
2023-02-22T10:53:07.610Z,32.70
2023-02-22T10:54:15.079Z,30.92
2023-02-22T10:55:19.752Z,29.71
2023-02-22T10:56:23.118Z,30.86
2023-02-22T10:57:32.102Z,29.70
2023-02-22T10:59:04.192Z,27.81
2023-02-22T11:00:29.657Z,25.76
2023-02-22T11:01:31.277Z,25.89
2023-02-22T11:02:35.572Z,26.12
2023-02-22T11:03:37.198Z,27.72
2023-02-22T11:04:51.343Z,31.23
2023-02-22T11:05:53.421Z,29.33
2023-02-22T11:07:00.801Z,31.91
2023-02-22T11:08:23.003Z,34.32
2023-02-22T11:09:24.606Z,34.52
2023-02-22T11:10:32.255Z,35.25
2023-02-22T11:11:34.077Z,33.74
2023-02-22T11:12:38.406Z,31.07
2023-02-22T11:13:40.326Z,27.78
2023-02-22T11:14:42.622Z,27.46
2023-02-22T11:15:44.906Z,27.32
2023-02-22T11:16:50.705Z,26.48
2023-02-22T11:17:55.212Z,25.37
2023-02-22T11:19:25.786Z,26.36
2023-02-22T11:20:35.620Z,25.42
2023-02-22T11:21:37.563Z,26.55
2023-02-22T11:22:41.314Z,25.96
2023-02-22T11:23:44.957Z,25.74
2023-02-22T11:25:15.099Z,25.86
2023-02-22T11:26:20.733Z,24.93
2023-02-22T11:27:34.029Z,24.92
2023-02-22T11:28:36.358Z,24.67
2023-02-22T11:29:37.908Z,25.45
2023-02-22T11:30:39.694Z,24.84
2023-02-22T11:31:45.688Z,26.24
2023-02-22T11:32:50.666Z,23.29
2023-02-22T11:35:20.533Z,22.14
2023-02-22T11:36:42.995Z,22.87
2023-02-22T11:37:44.682Z,23.75
2023-02-22T11:38:56.173Z,23.03
2023-02-22T11:40:22.346Z,24.68
2023-02-22T11:41:30.752Z,23.52
2023-02-22T11:42:32.250Z,25.73
2023-02-22T11:43:34.513Z,24.38
2023-02-22T11:44:36.055Z,26.43
2023-02-22T11:45:44.169Z,25.76
2023-02-22T11:46:48.929Z,25.11
2023-02-22T11:47:52.480Z,28.16
2023-02-22T11:48:56.964Z,29.75
2023-02-22T11:49:58.605Z,29.25
2023-02-22T11:51:27.390Z,28.30
2023-02-22T11:52:37.206Z,31.10
2023-02-22T11:54:28.612Z,30.11
2023-02-22T11:55:43.084Z,28.89
2023-02-22T11:56:48.988Z,28.86
2023-02-22T11:58:04.486Z,26.38
2023-02-22T11:59:13.027Z,28.93
2023-02-22T12:00:39.460Z,28.75
2023-02-22T12:02:22.501Z,27.43
2023-02-22T12:03:24.074Z,27.96
2023-02-22T12:04:43.797Z,27.04
2023-02-22T12:06:07.030Z,28.12
2023-02-22T12:07:15.418Z,27.80
2023-02-22T12:08:30.021Z,27.72
2023-02-22T12:09:34.378Z,27.23
2023-02-22T12:10:55.845Z,28.74
2023-02-22T12:12:16.722Z,30.04
2023-02-22T12:13:36.701Z,28.39
2023-02-22T12:14:59.716Z,29.27
2023-02-22T12:16:16.987Z,28.49
2023-02-22T12:17:54.329Z,29.12
2023-02-22T12:18:59.922Z,28.85
2023-02-22T12:20:24.791Z,27.84
2023-02-22T12:21:29.774Z,28.22
2023-02-22T12:22:36.759Z,29.06
2023-02-22T12:23:54.842Z,30.07
2023-02-22T12:25:09.711Z,28.73
2023-02-22T12:26:20.296Z,30.45
2023-02-22T12:27:28.431Z,32.52
2023-02-22T12:28:51.645Z,31.41
2023-02-22T12:30:34.989Z,29.32
2023-02-22T12:31:40.021Z,31.32
2023-02-22T12:32:46.315Z,30.85
2023-02-22T12:34:27.313Z,30.68
2023-02-22T12:35:34.882Z,31.08
2023-02-22T12:36:47.205Z,29.90
2023-02-22T12:37:56.338Z,31.07
2023-02-22T12:39:07.380Z,32.19
2023-02-22T12:40:24.578Z,32.20
2023-02-22T12:41:54.640Z,29.53
2023-02-22T12:42:56.166Z,30.77
2023-02-22T12:44:04.293Z,31.87
2023-02-22T12:45:13.956Z,32.83
2023-02-22T12:46:26.901Z,32.08
2023-02-22T12:47:37.338Z,32.65
2023-02-22T12:48:44.976Z,36.46
2023-02-22T12:50:00.428Z,33.15
2023-02-22T12:51:21.850Z,31.15
2023-02-22T12:52:49.607Z,32.82
2023-02-22T12:54:05.039Z,33.30
2023-02-22T12:55:15.983Z,32.36
2023-02-22T12:56:37.600Z,32.03
2023-02-22T12:57:57.162Z,32.26
2023-02-22T12:59:32.694Z,31.35
2023-02-22T13:00:44.870Z,32.45
2023-02-22T13:01:52.201Z,34.40
2023-02-22T13:03:22.378Z,34.18
2023-02-22T13:04:24.088Z,32.05
2023-02-22T13:05:26.187Z,33.14
2023-02-22T13:06:36.516Z,35.59
2023-02-22T13:08:06.184Z,36.75
2023-02-22T13:09:12.971Z,37.12
2023-02-22T13:10:32.475Z,37.19
2023-02-22T13:11:41.407Z,37.82
2023-02-22T13:12:55.135Z,37.44
2023-02-22T13:14:21.573Z,36.54
2023-02-22T13:15:52.665Z,38.10
2023-02-22T13:17:07.708Z,36.97
2023-02-22T13:18:25.732Z,36.66
2023-02-22T13:19:53.559Z,37.00
2023-02-22T13:21:01.861Z,36.94
2023-02-22T13:22:13.374Z,36.85
2023-02-22T13:23:53.422Z,36.56
2023-02-22T13:25:28.149Z,35.74
2023-02-22T13:26:40.223Z,37.10
2023-02-22T13:28:06.579Z,36.85
2023-02-22T13:29:13.864Z,37.68
2023-02-22T13:30:20.726Z,39.29
2023-02-22T13:31:40.873Z,36.91
2023-02-22T13:32:51.322Z,36.54
2023-02-22T13:34:16.507Z,36.88
2023-02-22T13:35:35.572Z,37.03
2023-02-22T13:36:48.777Z,36.73
2023-02-22T13:37:56.317Z,37.42
2023-02-22T13:39:07.898Z,37.10
2023-02-22T13:40:47.476Z,37.23
2023-02-22T13:41:55.201Z,36.31
2023-02-22T13:43:13.882Z,37.09
2023-02-22T13:44:15.360Z,37.22
2023-02-22T13:45:54.760Z,38.46
2023-02-22T13:47:05.490Z,38.64
2023-02-22T13:48:42.884Z,37.01
2023-02-22T13:50:18.070Z,37.83
2023-02-22T13:51:38.031Z,37.70
2023-02-22T13:52:40.356Z,38.38
2023-02-22T13:53:55.511Z,39.79
2023-02-22T13:55:03.188Z,38.96
2023-02-22T13:56:04.868Z,38.59
2023-02-22T13:57:20.025Z,40.68
2023-02-22T13:58:21.657Z,38.59
2023-02-22T13:59:41.512Z,39.58
2023-02-22T14:00:49.254Z,40.10
2023-02-22T14:01:53.484Z,40.17
2023-02-22T14:03:02.996Z,42.41
2023-02-22T14:04:28.850Z,39.01
2023-02-22T14:05:49.741Z,38.90
2023-02-22T14:06:51.638Z,40.29
2023-02-22T14:07:53.230Z,42.64
2023-02-22T14:08:54.848Z,42.78
2023-02-22T14:09:59.155Z,44.16
2023-02-22T14:11:02.165Z,41.53
2023-02-22T14:12:04.204Z,39.14
2023-02-22T14:13:07.613Z,41.48
2023-02-22T14:14:10.849Z,41.92
2023-02-22T14:15:29.837Z,42.37
2023-02-22T14:16:33.887Z,44.77
2023-02-22T14:17:39.563Z,42.25
2023-02-22T14:18:44.768Z,41.37
2023-02-22T14:20:21.622Z,41.43
2023-02-22T14:21:23.565Z,40.87